OPA Logo
 
ASOS:
At:2019.09.21 1715 UTC
Wind:
Viz: 10 mile(s)
Sky: clear
Temp: 57 F (14 C)
DewP: 42 F (6 C)
RH: 58%
Baro: 30.17 in.
ob: KBDN 211715Z AUTO 00000KT 10SM CLR 14/06 A3017 RMK AO2

ASOS: KRDM
At:2019.09.21 1656 UTC
Wind:160° @ 3KT
Viz: 10 mile(s)
Sky: clear
Temp: 55.0 F (12.8 C)
DewP: 43.0 F (6.1 C)
RH: 63%
Baro: 30.17 in.
ob: KRDM 211656Z 16003KT 10SM CLR 13/06 A3017 RMK AO2 SLP213 T01280061
Apache-SSL Logo

Valid HTML 4.01!

Central Oregon OPA Chapter

Upcoming Fly Outs


2004

June

12 Bend, OR - Flying Festival - Bend Airport

Other Fly-Out pages

Oregon Pilots Association Events Calendar

Washington Pilots Association Events

Past Fly Outs


Caldwell, ID and the Kitfox factory February 2002

XMAS Party 2001

Pasco, WA November 2001

Bend Airport Open House 2001

Flyout May 2001 to Flying M Ranch

Flyout April 2001 to Tillamook Air Museum


Web page by: gem@rellim.com